sensor_id;sensor_type;location;lat;lon;timestamp;pressure;altitude;pressure_sealevel;temperature;humidity
73941;BME280;62294;48.554;10.202;2023-05-28T00:00:44;93022.63;;;8.29;100.00
73941;BME280;62294;48.554;10.202;2023-05-28T00:03:11;93014.41;;;8.31;100.00
73941;BME280;62294;48.554;10.202;2023-05-28T00:05:38;92991.41;;;8.26;100.00
73941;BME280;62294;48.554;10.202;2023-05-28T00:08:05;92982.44;;;8.22;100.00
73941;BME280;62294;48.554;10.202;2023-05-28T00:10:31;92961.06;;;8.19;100.00
73941;BME280;62294;48.554;10.202;2023-05-28T00:12:57;92964.03;;;8.12;100.00
73941;BME280;62294;48.554;10.202;2023-05-28T00:15:24;92933.88;;;8.08;100.00
73941;BME280;62294;48.554;10.202;2023-05-28T00:17:51;92920.69;;;8.03;100.00
73941;BME280;62294;48.554;10.202;2023-05-28T00:20:20;92905.66;;;7.99;100.00
73941;BME280;62294;48.554;10.202;2023-05-28T00:22:48;92898.53;;;7.99;100.00
73941;BME280;62294;48.554;10.202;2023-05-28T00:25:15;92871.03;;;8.00;100.00
73941;BME280;62294;48.554;10.202;2023-05-28T00:27:41;92854.94;;;7.97;100.00
73941;BME280;62294;48.554;10.202;2023-05-28T00:30:08;92834.84;;;7.96;100.00
73941;BME280;62294;48.554;10.202;2023-05-28T00:32:34;92830.97;;;7.88;100.00
73941;BME280;62294;48.554;10.202;2023-05-28T00:35:01;92828.34;;;7.83;100.00
73941;BME280;62294;48.554;10.202;2023-05-28T00:37:28;92788.19;;;7.81;100.00
73941;BME280;62294;48.554;10.202;2023-05-28T00:39:55;92767.63;;;7.78;100.00
73941;BME280;62294;48.554;10.202;2023-05-28T00:42:21;92741.19;;;7.78;100.00
73941;BME280;62294;48.554;10.202;2023-05-28T00:44:48;92471.91;;;7.71;100.00
73941;BME280;62294;48.554;10.202;2023-05-28T00:47:15;92447.84;;;7.73;100.00
73941;BME280;62294;48.554;10.202;2023-05-28T00:49:41;92428.25;;;7.74;100.00
73941;BME280;62294;48.554;10.202;2023-05-28T00:52:09;92416.41;;;7.71;100.00
73941;BME280;62294;48.554;10.202;2023-05-28T00:54:36;92405.16;;;7.66;100.00
73941;BME280;62294;48.554;10.202;2023-05-28T00:57:03;92402.94;;;7.54;100.00
73941;BME280;62294;48.554;10.202;2023-05-28T00:59:29;92396.09;;;7.53;100.00
73941;BME280;62294;48.554;10.202;2023-05-28T01:01:57;92381.19;;;7.44;100.00
73941;BME280;62294;48.554;10.202;2023-05-28T01:04:23;92369.53;;;7.45;100.00
73941;BME280;62294;48.554;10.202;2023-05-28T01:06:50;92331.91;;;7.53;100.00
73941;BME280;62294;48.554;10.202;2023-05-28T01:09:17;92321.34;;;7.53;100.00
73941;BME280;62294;48.554;10.202;2023-05-28T01:11:44;92302.94;;;7.48;100.00
73941;BME280;62294;48.554;10.202;2023-05-28T01:14:16;92308.88;;;7.40;100.00
73941;BME280;62294;48.554;10.202;2023-05-28T01:16:42;92304.44;;;7.35;100.00
73941;BME280;62294;48.554;10.202;2023-05-28T01:19:11;92287.06;;;7.34;100.00
73941;BME280;62294;48.554;10.202;2023-05-28T01:21:44;92283.69;;;7.29;100.00
73941;BME280;62294;48.554;10.202;2023-05-28T01:24:12;92276.06;;;7.27;100.00
73941;BME280;62294;48.554;10.202;2023-05-28T01:26:42;92280.91;;;7.06;100.00
73941;BME280;62294;48.554;10.202;2023-05-28T01:29:16;92248.34;;;7.11;100.00
73941;BME280;62294;48.554;10.202;2023-05-28T01:31:43;92226.66;;;7.14;100.00
73941;BME280;62294;48.554;10.202;2023-05-28T01:34:11;92196.59;;;7.10;100.00
73941;BME280;62294;48.554;10.202;2023-05-28T01:36:46;92186.16;;;7.05;100.00
73941;BME280;62294;48.554;10.202;2023-05-28T01:39:16;92168.25;;;7.02;100.00
73941;BME280;62294;48.554;10.202;2023-05-28T01:41:46;92158.00;;;7.00;100.00
73941;BME280;62294;48.554;10.202;2023-05-28T01:44:14;92150.56;;;7.02;100.00
73941;BME280;62294;48.554;10.202;2023-05-28T01:46:43;92141.75;;;6.93;100.00
73941;BME280;62294;48.554;10.202;2023-05-28T01:49:12;92145.75;;;6.91;100.00
73941;BME280;62294;48.554;10.202;2023-05-28T01:51:38;92134.41;;;6.90;100.00
73941;BME280;62294;48.554;10.202;2023-05-28T01:54:05;92135.56;;;6.84;100.00
73941;BME280;62294;48.554;10.202;2023-05-28T01:56:32;92132.03;;;6.75;100.00
73941;BME280;62294;48.554;10.202;2023-05-28T01:58:58;92116.78;;;6.72;100.00
73941;BME280;62294;48.554;10.202;2023-05-28T02:01:33;92109.16;;;6.71;100.00
73941;BME280;62294;48.554;10.202;2023-05-28T02:04:02;92098.78;;;6.61;100.00
73941;BME280;62294;48.554;10.202;2023-05-28T02:06:32;92081.59;;;6.63;100.00
73941;BME280;62294;48.554;10.202;2023-05-28T02:08:58;92075.75;;;6.66;100.00
73941;BME280;62294;48.554;10.202;2023-05-28T02:11:25;92056.19;;;6.67;100.00
73941;BME280;62294;48.554;10.202;2023-05-28T02:13:52;92040.72;;;6.61;100.00
73941;BME280;62294;48.554;10.202;2023-05-28T02:16:20;92038.41;;;6.59;100.00
73941;BME280;62294;48.554;10.202;2023-05-28T02:18:50;92024.69;;;6.57;100.00
73941;BME280;62294;48.554;10.202;2023-05-28T02:21:17;92002.53;;;6.58;100.00
73941;BME280;62294;48.554;10.202;2023-05-28T02:23:45;92005.75;;;6.55;100.00
73941;BME280;62294;48.554;10.202;2023-05-28T02:26:12;91997.94;;;6.50;100.00
73941;BME280;62294;48.554;10.202;2023-05-28T02:28:40;92014.53;;;6.51;100.00
73941;BME280;62294;48.554;10.202;2023-05-28T02:31:10;92020.56;;;6.37;100.00
73941;BME280;62294;48.554;10.202;2023-05-28T02:33:38;92020.09;;;6.35;100.00
73941;BME280;62294;48.554;10.202;2023-05-28T02:36:05;92019.91;;;6.32;100.00
73941;BME280;62294;48.554;10.202;2023-05-28T02:38:32;92004.16;;;6.27;100.00
73941;BME280;62294;48.554;10.202;2023-05-28T02:40:58;91978.19;;;6.34;100.00
73941;BME280;62294;48.554;10.202;2023-05-28T02:43:25;91960.78;;;6.33;100.00
73941;BME280;62294;48.554;10.202;2023-05-28T02:45:52;91946.06;;;6.32;100.00
73941;BME280;62294;48.554;10.202;2023-05-28T02:48:19;91931.59;;;6.29;100.00
73941;BME280;62294;48.554;10.202;2023-05-28T02:50:46;91926.69;;;6.23;100.00
73941;BME280;62294;48.554;10.202;2023-05-28T02:53:12;91913.91;;;6.30;100.00
73941;BME280;62294;48.554;10.202;2023-05-28T02:55:38;91902.41;;;6.26;100.00
73941;BME280;62294;48.554;10.202;2023-05-28T02:58:05;91894.00;;;6.24;100.00
73941;BME280;62294;48.554;10.202;2023-05-28T03:00:32;91893.03;;;6.20;100.00
73941;BME280;62294;48.554;10.202;2023-05-28T03:02:59;91886.28;;;6.14;100.00
73941;BME280;62294;48.554;10.202;2023-05-28T03:05:26;91898.97;;;6.12;100.00
73941;BME280;62294;48.554;10.202;2023-05-28T03:07:53;91876.81;;;6.13;100.00
73941;BME280;62294;48.554;10.202;2023-05-28T03:10:20;91871.06;;;6.11;100.00
73941;BME280;62294;48.554;10.202;2023-05-28T03:12:47;91871.94;;;6.06;100.00
73941;BME280;62294;48.554;10.202;2023-05-28T03:15:13;91866.66;;;6.06;100.00
73941;BME280;62294;48.554;10.202;2023-05-28T03:17:40;91843.03;;;6.01;100.00
73941;BME280;62294;48.554;10.202;2023-05-28T03:20:07;91836.97;;;6.01;100.00
73941;BME280;62294;48.554;10.202;2023-05-28T03:22:36;91833.84;;;5.99;100.00
73941;BME280;62294;48.554;10.202;2023-05-28T03:25:03;91832.88;;;5.95;100.00
73941;BME280;62294;48.554;10.202;2023-05-28T03:27:32;91822.13;;;5.91;100.00
73941;BME280;62294;48.554;10.202;2023-05-28T03:29:58;91816.88;;;5.91;100.00
73941;BME280;62294;48.554;10.202;2023-05-28T03:32:24;91808.69;;;5.93;100.00
73941;BME280;62294;48.554;10.202;2023-05-28T03:34:51;91810.41;;;5.84;100.00
73941;BME280;62294;48.554;10.202;2023-05-28T03:37:18;91821.22;;;5.82;100.00
73941;BME280;62294;48.554;10.202;2023-05-28T03:39:44;91798.31;;;5.83;100.00
73941;BME280;62294;48.554;10.202;2023-05-28T03:42:11;91800.38;;;5.86;100.00
73941;BME280;62294;48.554;10.202;2023-05-28T03:44:38;91779.97;;;5.91;100.00
73941;BME280;62294;48.554;10.202;2023-05-28T03:47:04;91788.97;;;5.90;100.00
73941;BME280;62294;48.554;10.202;2023-05-28T03:49:31;91775.50;;;5.92;100.00
73941;BME280;62294;48.554;10.202;2023-05-28T03:51:58;91762.03;;;5.93;100.00
73941;BME280;62294;48.554;10.202;2023-05-28T03:54:24;91776.06;;;5.89;100.00
73941;BME280;62294;48.554;10.202;2023-05-28T03:56:51;91754.81;;;5.99;100.00
73941;BME280;62294;48.554;10.202;2023-05-28T03:59:18;91751.59;;;6.02;100.00
73941;BME280;62294;48.554;10.202;2023-05-28T04:01:44;91736.44;;;6.07;100.00
73941;BME280;62294;48.554;10.202;2023-05-28T04:04:12;91736.03;;;6.14;100.00
73941;BME280;62294;48.554;10.202;2023-05-28T04:06:39;91717.94;;;6.21;100.00
73941;BME280;62294;48.554;10.202;2023-05-28T04:09:06;91724.91;;;6.17;100.00
73941;BME280;62294;48.554;10.202;2023-05-28T04:11:33;91720.31;;;6.22;100.00
73941;BME280;62294;48.554;10.202;2023-05-28T04:14:01;91700.84;;;6.32;100.00
73941;BME280;62294;48.554;10.202;2023-05-28T04:16:27;91718.63;;;6.26;100.00
73941;BME280;62294;48.554;10.202;2023-05-28T04:18:54;91719.31;;;6.32;100.00
73941;BME280;62294;48.554;10.202;2023-05-28T04:21:21;91714.56;;;6.42;100.00
73941;BME280;62294;48.554;10.202;2023-05-28T04:23:48;91735.59;;;6.34;100.00
73941;BME280;62294;48.554;10.202;2023-05-28T04:26:15;91731.28;;;6.38;100.00
73941;BME280;62294;48.554;10.202;2023-05-28T04:28:42;91727.94;;;6.46;100.00
73941;BME280;62294;48.554;10.202;2023-05-28T04:31:09;91731.56;;;6.50;100.00
73941;BME280;62294;48.554;10.202;2023-05-28T04:33:36;91711.34;;;6.68;100.00
73941;BME280;62294;48.554;10.202;2023-05-28T04:36:03;91715.25;;;6.70;100.00
73941;BME280;62294;48.554;10.202;2023-05-28T04:38:30;91713.94;;;6.81;100.00
73941;BME280;62294;48.554;10.202;2023-05-28T04:41:00;91693.56;;;7.04;100.00
73941;BME280;62294;48.554;10.202;2023-05-28T04:43:26;91685.56;;;7.18;100.00
73941;BME280;62294;48.554;10.202;2023-05-28T04:45:55;91675.06;;;7.35;100.00
73941;BME280;62294;48.554;10.202;2023-05-28T04:48:25;91690.50;;;7.41;100.00
73941;BME280;62294;48.554;10.202;2023-05-28T04:50:52;91692.88;;;7.60;100.00
73941;BME280;62294;48.554;10.202;2023-05-28T04:53:19;91690.44;;;7.72;100.00
73941;BME280;62294;48.554;10.202;2023-05-28T04:55:46;91727.13;;;7.73;100.00
73941;BME280;62294;48.554;10.202;2023-05-28T04:58:12;91732.16;;;7.92;100.00
73941;BME280;62294;48.554;10.202;2023-05-28T05:00:39;91738.72;;;8.03;100.00
73941;BME280;62294;48.554;10.202;2023-05-28T05:03:06;91740.78;;;8.23;100.00
73941;BME280;62294;48.554;10.202;2023-05-28T05:05:32;91755.91;;;8.31;100.00
73941;BME280;62294;48.554;10.202;2023-05-28T05:07:59;91758.44;;;8.53;100.00
73941;BME280;62294;48.554;10.202;2023-05-28T05:10:26;91768.13;;;8.67;100.00
73941;BME280;62294;48.554;10.202;2023-05-28T05:12:53;91774.97;;;8.85;100.00
73941;BME280;62294;48.554;10.202;2023-05-28T05:15:19;91780.72;;;9.04;100.00
73941;BME280;62294;48.554;10.202;2023-05-28T05:17:46;91805.34;;;9.21;100.00
73941;BME280;62294;48.554;10.202;2023-05-28T05:20:13;91839.16;;;9.33;100.00
73941;BME280;62294;48.554;10.202;2023-05-28T05:22:39;91873.88;;;9.40;100.00
73941;BME280;62294;48.554;10.202;2023-05-28T05:25:07;91920.19;;;9.51;100.00
73941;BME280;62294;48.554;10.202;2023-05-28T05:27:36;91935.78;;;9.78;100.00
73941;BME280;62294;48.554;10.202;2023-05-28T05:30:04;91949.63;;;10.10;100.00
73941;BME280;62294;48.554;10.202;2023-05-28T05:32:31;91943.91;;;10.62;100.00
73941;BME280;62294;48.554;10.202;2023-05-28T05:34:58;91826.28;;;11.98;100.00
73941;BME280;62294;48.554;10.202;2023-05-28T05:37:24;91675.34;;;13.85;100.00
73941;BME280;62294;48.554;10.202;2023-05-28T05:39:51;91639.25;;;15.53;100.00
73941;BME280;62294;48.554;10.202;2023-05-28T05:42:18;91801.16;;;16.91;100.00
73941;BME280;62294;48.554;10.202;2023-05-28T05:44:44;92179.00;;;17.92;100.00
73941;BME280;62294;48.554;10.202;2023-05-28T05:47:11;92777.41;;;18.38;100.00
73941;BME280;62294;48.554;10.202;2023-05-28T05:49:38;93558.41;;;19.03;100.00
73941;BME280;62294;48.554;10.202;2023-05-28T05:52:04;94221.97;;;19.83;100.00
73941;BME280;62294;48.554;10.202;2023-05-28T05:54:32;94907.19;;;20.34;100.00
73941;BME280;62294;48.554;10.202;2023-05-28T05:56:58;95497.44;;;20.47;100.00
73941;BME280;62294;48.554;10.202;2023-05-28T05:59:25;96127.91;;;20.73;100.00
73941;BME280;62294;48.554;10.202;2023-05-28T06:01:52;96925.03;;;21.18;100.00
73941;BME280;62294;48.554;10.202;2023-05-28T06:04:18;96274.84;;;21.65;100.00
73941;BME280;62294;48.554;10.202;2023-05-28T06:06:45;95989.72;;;22.78;100.00
73941;BME280;62294;48.554;10.202;2023-05-28T06:09:12;95816.75;;;22.39;100.00
73941;BME280;62294;48.554;10.202;2023-05-28T06:11:38;95659.84;;;23.41;100.00
73941;BME280;62294;48.554;10.202;2023-05-28T06:14:05;95213.31;;;23.37;100.00
73941;BME280;62294;48.554;10.202;2023-05-28T06:16:31;94341.25;;;24.76;100.00
73941;BME280;62294;48.554;10.202;2023-05-28T06:18:58;93724.97;;;24.58;100.00
73941;BME280;62294;48.554;10.202;2023-05-28T06:21:24;93130.88;;;24.89;100.00
73941;BME280;62294;48.554;10.202;2023-05-28T06:23:52;93979.34;;;25.27;100.00
73941;BME280;62294;48.554;10.202;2023-05-28T06:26:18;94290.84;;;25.09;100.00
73941;BME280;62294;48.554;10.202;2023-05-28T06:28:45;94585.16;;;25.93;100.00
73941;BME280;62294;48.554;10.202;2023-05-28T06:31:11;94646.38;;;26.61;100.00
73941;BME280;62294;48.554;10.202;2023-05-28T06:33:38;94716.84;;;25.61;100.00
73941;BME280;62294;48.554;10.202;2023-05-28T06:36:04;94666.72;;;24.82;100.00
73941;BME280;62294;48.554;10.202;2023-05-28T06:38:34;94771.78;;;26.18;100.00
73941;BME280;62294;48.554;10.202;2023-05-28T06:41:01;94938.63;;;25.67;100.00
73941;BME280;62294;48.554;10.202;2023-05-28T06:43:28;94806.25;;;22.80;100.00
73941;BME280;62294;48.554;10.202;2023-05-28T06:45:55;94755.09;;;23.37;100.00
73941;BME280;62294;48.554;10.202;2023-05-28T06:48:21;94886.81;;;24.49;100.00
73941;BME280;62294;48.554;10.202;2023-05-28T06:50:48;95017.38;;;25.51;100.00
73941;BME280;62294;48.554;10.202;2023-05-28T06:53:15;94920.16;;;24.38;100.00
73941;BME280;62294;48.554;10.202;2023-05-28T06:55:41;94904.13;;;24.04;100.00
73941;BME280;62294;48.554;10.202;2023-05-28T06:58:10;94998.81;;;25.08;100.00
73941;BME280;62294;48.554;10.202;2023-05-28T07:00:36;95089.81;;;25.44;100.00
73941;BME280;62294;48.554;10.202;2023-05-28T07:03:02;95084.31;;;26.21;100.00
73941;BME280;62294;48.554;10.202;2023-05-28T07:05:29;95194.91;;;26.83;100.00
73941;BME280;62294;48.554;10.202;2023-05-28T07:07:56;95173.97;;;25.49;100.00
73941;BME280;62294;48.554;10.202;2023-05-28T07:10:22;95048.97;;;24.78;100.00
73941;BME280;62294;48.554;10.202;2023-05-28T07:12:49;95135.94;;;26.30;100.00
73941;BME280;62294;48.554;10.202;2023-05-28T07:15:15;95203.03;;;25.89;100.00
73941;BME280;62294;48.554;10.202;2023-05-28T07:17:43;95202.25;;;26.70;100.00
73941;BME280;62294;48.554;10.202;2023-05-28T07:20:10;95217.34;;;26.67;100.00
73941;BME280;62294;48.554;10.202;2023-05-28T07:22:37;95201.25;;;26.99;100.00
73941;BME280;62294;48.554;10.202;2023-05-28T07:25:04;95226.63;;;26.42;100.00
73941;BME280;62294;48.554;10.202;2023-05-28T07:27:32;95153.75;;;26.27;100.00
73941;BME280;62294;48.554;10.202;2023-05-28T07:29:59;95192.59;;;26.72;100.00
73941;BME280;62294;48.554;10.202;2023-05-28T07:32:25;95223.78;;;27.48;100.00
73941;BME280;62294;48.554;10.202;2023-05-28T07:34:52;95218.59;;;25.68;100.00
73941;BME280;62294;48.554;10.202;2023-05-28T07:37:19;95266.59;;;26.38;100.00
73941;BME280;62294;48.554;10.202;2023-05-28T07:39:46;95266.28;;;27.61;100.00
73941;BME280;62294;48.554;10.202;2023-05-28T07:42:13;95257.50;;;26.34;100.00
73941;BME280;62294;48.554;10.202;2023-05-28T07:44:40;95209.75;;;27.61;100.00
73941;BME280;62294;48.554;10.202;2023-05-28T07:47:06;95310.44;;;28.30;100.00
73941;BME280;62294;48.554;10.202;2023-05-28T07:49:33;95366.22;;;27.89;100.00
73941;BME280;62294;48.554;10.202;2023-05-28T07:51:59;95324.19;;;27.18;100.00
73941;BME280;62294;48.554;10.202;2023-05-28T07:54:26;95312.78;;;27.64;100.00
73941;BME280;62294;48.554;10.202;2023-05-28T07:56:52;95340.50;;;27.90;100.00
73941;BME280;62294;48.554;10.202;2023-05-28T07:59:19;95391.38;;;28.35;100.00
73941;BME280;62294;48.554;10.202;2023-05-28T08:01:47;95350.59;;;26.69;100.00
73941;BME280;62294;48.554;10.202;2023-05-28T08:04:14;95333.22;;;27.94;100.00
73941;BME280;62294;48.554;10.202;2023-05-28T08:06:41;95399.25;;;29.70;100.00
73941;BME280;62294;48.554;10.202;2023-05-28T08:09:08;95384.34;;;28.34;100.00
73941;BME280;62294;48.554;10.202;2023-05-28T08:11:34;95405.63;;;29.11;100.00
73941;BME280;62294;48.554;10.202;2023-05-28T08:14:00;95313.94;;;26.91;100.00
73941;BME280;62294;48.554;10.202;2023-05-28T08:16:27;95426.91;;;28.74;100.00
73941;BME280;62294;48.554;10.202;2023-05-28T08:18:54;95443.13;;;29.11;100.00
73941;BME280;62294;48.554;10.202;2023-05-28T08:21:20;95449.41;;;28.56;100.00
73941;BME280;62294;48.554;10.202;2023-05-28T08:23:49;95437.59;;;28.79;100.00
73941;BME280;62294;48.554;10.202;2023-05-28T08:26:16;95422.44;;;28.02;100.00
73941;BME280;62294;48.554;10.202;2023-05-28T08:28:42;95448.38;;;27.96;100.00
73941;BME280;62294;48.554;10.202;2023-05-28T08:31:09;95425.84;;;27.75;100.00
73941;BME280;62294;48.554;10.202;2023-05-28T08:33:35;95418.56;;;27.43;100.00
73941;BME280;62294;48.554;10.202;2023-05-28T08:36:02;95456.34;;;29.52;100.00
73941;BME280;62294;48.554;10.202;2023-05-28T08:38:29;95480.34;;;28.72;100.00
73941;BME280;62294;48.554;10.202;2023-05-28T08:40:56;95477.88;;;29.22;100.00
73941;BME280;62294;48.554;10.202;2023-05-28T08:43:23;95473.09;;;27.88;100.00
73941;BME280;62294;48.554;10.202;2023-05-28T08:45:53;95494.94;;;28.12;100.00
73941;BME280;62294;48.554;10.202;2023-05-28T08:48:22;95515.31;;;28.78;100.00
73941;BME280;62294;48.554;10.202;2023-05-28T08:50:53;95968.31;;;29.04;100.00
73941;BME280;62294;48.554;10.202;2023-05-28T08:53:22;95971.59;;;29.09;100.00
73941;BME280;62294;48.554;10.202;2023-05-28T08:55:50;95991.16;;;29.77;100.00
73941;BME280;62294;48.554;10.202;2023-05-28T08:58:17;95941.28;;;27.11;100.00
73941;BME280;62294;48.554;10.202;2023-05-28T09:00:46;95959.34;;;26.52;100.00
73941;BME280;62294;48.554;10.202;2023-05-28T09:03:13;95909.19;;;25.37;100.00
73941;BME280;62294;48.554;10.202;2023-05-28T09:05:39;95824.66;;;22.95;100.00
73941;BME280;62294;48.554;10.202;2023-05-28T09:08:07;95921.81;;;26.66;100.00
73941;BME280;62294;48.554;10.202;2023-05-28T09:10:35;95915.09;;;26.55;100.00
73941;BME280;62294;48.554;10.202;2023-05-28T09:13:01;95939.56;;;25.78;100.00
73941;BME280;62294;48.554;10.202;2023-05-28T09:15:29;95937.25;;;26.28;100.00
73941;BME280;62294;48.554;10.202;2023-05-28T09:17:59;95918.63;;;25.39;100.00
73941;BME280;62294;48.554;10.202;2023-05-28T09:20:26;95954.75;;;27.54;100.00
73941;BME280;62294;48.554;10.202;2023-05-28T09:22:59;95931.91;;;27.67;100.00
73941;BME280;62294;48.554;10.202;2023-05-28T09:25:27;95934.63;;;27.38;100.00
73941;BME280;62294;48.554;10.202;2023-05-28T09:27:56;95965.97;;;29.26;100.00
73941;BME280;62294;48.554;10.202;2023-05-28T09:30:24;95986.50;;;27.96;100.00
73941;BME280;62294;48.554;10.202;2023-05-28T09:33:03;95956.31;;;26.28;100.00
73941;BME280;62294;48.554;10.202;2023-05-28T09:35:31;95937.88;;;26.51;100.00
73941;BME280;62294;48.554;10.202;2023-05-28T09:38:09;95944.47;;;27.13;100.00
73941;BME280;62294;48.554;10.202;2023-05-28T09:40:40;95934.47;;;27.72;100.00
73941;BME280;62294;48.554;10.202;2023-05-28T09:43:08;95937.97;;;26.89;100.00
73941;BME280;62294;48.554;10.202;2023-05-28T09:45:35;95959.47;;;27.45;100.00
73941;BME280;62294;48.554;10.202;2023-05-28T09:48:03;95989.78;;;26.54;100.00
73941;BME280;62294;48.554;10.202;2023-05-28T09:50:30;95950.22;;;26.48;100.00
73941;BME280;62294;48.554;10.202;2023-05-28T09:52:58;95960.31;;;26.39;100.00
73941;BME280;62294;48.554;10.202;2023-05-28T09:55:26;95982.22;;;26.00;100.00
73941;BME280;62294;48.554;10.202;2023-05-28T09:58:04;95986.72;;;26.13;100.00
73941;BME280;62294;48.554;10.202;2023-05-28T10:00:50;95959.66;;;26.85;100.00
73941;BME280;62294;48.554;10.202;2023-05-28T10:03:28;95954.00;;;26.99;100.00
73941;BME280;62294;48.554;10.202;2023-05-28T10:06:04;95965.91;;;27.32;100.00
73941;BME280;62294;48.554;10.202;2023-05-28T10:08:33;95941.41;;;24.60;100.00
73941;BME280;62294;48.554;10.202;2023-05-28T10:11:08;95942.50;;;26.50;100.00
73941;BME280;62294;48.554;10.202;2023-05-28T10:13:35;95962.56;;;27.93;100.00
73941;BME280;62294;48.554;10.202;2023-05-28T10:16:02;95978.91;;;26.12;100.00
73941;BME280;62294;48.554;10.202;2023-05-28T10:18:30;95967.53;;;26.78;100.00
73941;BME280;62294;48.554;10.202;2023-05-28T10:20:58;95956.91;;;26.94;100.00
73941;BME280;62294;48.554;10.202;2023-05-28T10:23:25;95951.44;;;25.99;100.00
73941;BME280;62294;48.554;10.202;2023-05-28T10:25:52;95980.31;;;27.58;100.00
73941;BME280;62294;48.554;10.202;2023-05-28T10:28:21;95979.03;;;28.76;100.00
73941;BME280;62294;48.554;10.202;2023-05-28T10:30:59;95983.13;;;28.70;100.00
73941;BME280;62294;48.554;10.202;2023-05-28T10:33:28;95992.00;;;28.67;100.00
73941;BME280;62294;48.554;10.202;2023-05-28T10:35:56;95979.72;;;29.75;100.00
73941;BME280;62294;48.554;10.202;2023-05-28T10:38:24;95985.16;;;28.52;100.00
73941;BME280;62294;48.554;10.202;2023-05-28T10:40:59;95979.31;;;28.62;100.00
73941;BME280;62294;48.554;10.202;2023-05-28T10:46:08;95980.38;;;28.70;100.00
73941;BME280;62294;48.554;10.202;2023-05-28T10:49:11;95979.25;;;27.42;100.00
73941;BME280;62294;48.554;10.202;2023-05-28T10:51:59;95989.03;;;28.10;100.00
73941;BME280;62294;48.554;10.202;2023-05-28T10:57:11;95984.50;;;28.76;100.00
73941;BME280;62294;48.554;10.202;2023-05-28T11:02:21;95976.25;;;28.64;100.00
73941;BME280;62294;48.554;10.202;2023-05-28T11:04:56;95999.78;;;28.15;100.00
73941;BME280;62294;48.554;10.202;2023-05-28T11:07:33;95994.78;;;28.17;100.00
73941;BME280;62294;48.554;10.202;2023-05-28T11:10:05;95973.00;;;28.00;100.00
73941;BME280;62294;48.554;10.202;2023-05-28T11:12:37;95969.31;;;27.29;100.00
73941;BME280;62294;48.554;10.202;2023-05-28T11:15:05;95957.50;;;25.71;100.00
73941;BME280;62294;48.554;10.202;2023-05-28T11:17:39;95980.81;;;26.54;100.00
73941;BME280;62294;48.554;10.202;2023-05-28T11:20:21;95990.53;;;27.15;100.00
73941;BME280;62294;48.554;10.202;2023-05-28T11:22:48;95982.75;;;27.80;100.00
73941;BME280;62294;48.554;10.202;2023-05-28T11:25:15;95970.88;;;26.66;100.00
73941;BME280;62294;48.554;10.202;2023-05-28T11:27:42;95994.88;;;28.21;100.00
73941;BME280;62294;48.554;10.202;2023-05-28T11:30:13;95993.94;;;29.32;100.00
73941;BME280;62294;48.554;10.202;2023-05-28T11:32:41;95984.94;;;29.31;100.00
73941;BME280;62294;48.554;10.202;2023-05-28T11:35:12;96000.22;;;27.50;100.00
73941;BME280;62294;48.554;10.202;2023-05-28T11:37:40;95959.06;;;25.72;100.00
73941;BME280;62294;48.554;10.202;2023-05-28T11:40:09;95958.53;;;25.13;100.00
73941;BME280;62294;48.554;10.202;2023-05-28T11:42:40;95951.56;;;25.69;100.00
73941;BME280;62294;48.554;10.202;2023-05-28T11:45:08;95951.13;;;28.29;100.00
73941;BME280;62294;48.554;10.202;2023-05-28T11:47:36;95978.66;;;28.45;100.00
73941;BME280;62294;48.554;10.202;2023-05-28T11:50:14;95977.53;;;29.44;100.00
73941;BME280;62294;48.554;10.202;2023-05-28T11:52:42;95983.91;;;28.08;100.00
73941;BME280;62294;48.554;10.202;2023-05-28T11:55:09;95974.47;;;28.68;100.00
73941;BME280;62294;48.554;10.202;2023-05-28T11:57:36;95985.03;;;28.28;100.00
73941;BME280;62294;48.554;10.202;2023-05-28T12:00:10;95982.56;;;27.48;100.00
73941;BME280;62294;48.554;10.202;2023-05-28T12:02:54;95976.84;;;28.49;100.00
73941;BME280;62294;48.554;10.202;2023-05-28T12:05:21;95985.59;;;28.63;100.00
73941;BME280;62294;48.554;10.202;2023-05-28T12:10:16;95977.38;;;29.28;100.00
73941;BME280;62294;48.554;10.202;2023-05-28T12:12:46;95971.97;;;28.13;100.00
73941;BME280;62294;48.554;10.202;2023-05-28T12:15:14;95977.09;;;28.15;100.00
73941;BME280;62294;48.554;10.202;2023-05-28T12:17:42;95981.50;;;28.69;100.00
73941;BME280;62294;48.554;10.202;2023-05-28T12:22:39;95982.09;;;29.52;100.00
73941;BME280;62294;48.554;10.202;2023-05-28T12:25:06;95980.19;;;29.53;100.00
73941;BME280;62294;48.554;10.202;2023-05-28T12:27:34;95984.97;;;28.57;100.00
73941;BME280;62294;48.554;10.202;2023-05-28T12:30:02;95965.22;;;28.93;100.00
73941;BME280;62294;48.554;10.202;2023-05-28T12:32:28;95963.53;;;29.13;100.00
73941;BME280;62294;48.554;10.202;2023-05-28T12:34:55;95963.41;;;29.78;100.00
73941;BME280;62294;48.554;10.202;2023-05-28T12:37:28;95956.28;;;30.26;100.00
73941;BME280;62294;48.554;10.202;2023-05-28T12:39:55;95961.81;;;29.08;100.00
73941;BME280;62294;48.554;10.202;2023-05-28T12:42:22;95957.13;;;27.18;100.00
73941;BME280;62294;48.554;10.202;2023-05-28T12:44:48;95955.84;;;27.99;100.00
73941;BME280;62294;48.554;10.202;2023-05-28T12:47:14;95949.16;;;27.80;100.00
73941;BME280;62294;48.554;10.202;2023-05-28T12:49:41;95941.22;;;27.28;100.00
73941;BME280;62294;48.554;10.202;2023-05-28T12:52:08;95936.78;;;27.82;100.00
73941;BME280;62294;48.554;10.202;2023-05-28T12:54:35;95939.31;;;29.35;100.00
73941;BME280;62294;48.554;10.202;2023-05-28T12:57:01;95929.03;;;29.69;100.00
73941;BME280;62294;48.554;10.202;2023-05-28T12:59:29;95930.63;;;26.63;100.00
73941;BME280;62294;48.554;10.202;2023-05-28T13:01:55;95910.72;;;27.64;100.00